Time;durP1;ratioP1;P1;durP2;ratioP2;P2;SDS_P1;SDS_P2;PMS_P1;PMS_P2;Temp;Humidity;BMP_temperature;BMP_pressure;BME280_temperature;BME280_humidity;BME280_pressure;Samples;Min_cycle;Max_cycle;Signal;HPM_P1;HPM_P2
2023/03/09 00:01:20;;;;;;;4.45;1.70;;;;;;;;;;5034870;28;20017;-69
2023/03/09 00:03:47;;;;;;;4.75;1.98;;;;;;;;;;5034724;28;20039;-69
2023/03/09 00:06:13;;;;;;;3.45;2.20;;;;;;;;;;5034878;28;20155;-69
2023/03/09 00:08:40;;;;;;;3.45;2.10;;;;;;;;;;5035154;28;20013;-69
2023/03/09 00:11:06;;;;;;;6.22;1.75;;;;;;;;;;5034670;28;20039;-69
2023/03/09 00:13:33;;;;;;;1.75;1.33;;;;;;;;;;5035287;28;20229;-68
2023/03/09 00:16:32;;;;;;;3.33;1.70;;;;;;;;;;5034368;28;20052;-68
2023/03/09 00:18:58;;;;;;;7.43;1.45;;;;;;;;;;5011477;28;20053;-69
2023/03/09 00:21:49;;;;;;;3.08;1.95;;;;;;;;;;5012460;28;20561;-68
2023/03/09 00:24:16;;;;;;;2.65;1.63;;;;;;;;;;5012550;28;20022;-68
2023/03/09 00:26:44;;;;;;;4.47;2.03;;;;;;;;;;5012345;28;20037;-69
2023/03/09 00:29:11;;;;;;;3.25;1.90;;;;;;;;;;5012797;28;20034;-69
2023/03/09 00:31:38;;;;;;;1.98;1.60;;;;;;;;;;5029066;28;20038;-68
2023/03/09 00:34:05;;;;;;;3.15;1.50;;;;;;;;;;5012147;28;20042;-69
2023/03/09 00:36:31;;;;;;;9.65;1.88;;;;;;;;;;5029064;28;20034;-69
2023/03/09 00:38:58;;;;;;;2.80;1.52;;;;;;;;;;5011939;28;20079;-69
2023/03/09 00:41:30;;;;;;;3.72;1.50;;;;;;;;;;5011637;28;20036;-69
2023/03/09 00:44:00;;;;;;;2.75;1.33;;;;;;;;;;5012197;28;20160;-68
2023/03/09 00:46:27;;;;;;;1.65;1.42;;;;;;;;;;5011548;28;20029;-69
2023/03/09 00:48:53;;;;;;;4.25;1.30;;;;;;;;;;5012332;28;20044;-69
2023/03/09 00:51:19;;;;;;;2.53;1.48;;;;;;;;;;5011979;28;20029;-68
2023/03/09 00:53:46;;;;;;;4.10;1.83;;;;;;;;;;5012068;28;20029;-68
2023/03/09 00:56:16;;;;;;;2.28;1.67;;;;;;;;;;5013838;28;20384;-68
2023/03/09 00:58:43;;;;;;;3.65;1.95;;;;;;;;;;5013846;28;20087;-68
2023/03/09 01:01:10;;;;;;;4.20;1.90;;;;;;;;;;5014154;28;20022;-68
2023/03/09 01:03:37;;;;;;;5.82;3.50;;;;;;;;;;5013907;28;20040;-69
2023/03/09 01:06:04;;;;;;;4.18;2.65;;;;;;;;;;5013815;28;20032;-69
2023/03/09 01:08:30;;;;;;;3.22;2.30;;;;;;;;;;5013539;28;20018;-69
2023/03/09 01:10:56;;;;;;;3.85;2.10;;;;;;;;;;5013684;28;20026;-68
2023/03/09 01:13:23;;;;;;;5.05;2.30;;;;;;;;;;5013867;28;20034;-68
2023/03/09 01:15:49;;;;;;;5.70;2.45;;;;;;;;;;5013604;28;20479;-68
2023/03/09 01:18:17;;;;;;;4.28;2.83;;;;;;;;;;5045197;28;20422;-68
2023/03/09 01:20:43;;;;;;;5.10;2.75;;;;;;;;;;5013342;28;20030;-69
2023/03/09 01:23:09;;;;;;;4.03;2.10;;;;;;;;;;5013435;28;20413;-68
2023/03/09 01:25:36;;;;;;;2.65;1.50;;;;;;;;;;5013096;28;20018;-68
2023/03/09 01:28:02;;;;;;;2.83;1.40;;;;;;;;;;5013684;28;20029;-68
2023/03/09 01:30:28;;;;;;;3.80;1.60;;;;;;;;;;5013148;28;20426;-69
2023/03/09 01:32:54;;;;;;;3.22;1.60;;;;;;;;;;5013481;28;20026;-69
2023/03/09 01:35:21;;;;;;;3.75;1.80;;;;;;;;;;5013114;28;20022;-68
2023/03/09 01:37:47;;;;;;;2.83;1.50;;;;;;;;;;5012920;28;20448;-69
2023/03/09 01:40:19;;;;;;;2.78;1.30;;;;;;;;;;5032352;28;20025;-69
2023/03/09 01:42:53;;;;;;;3.13;1.40;;;;;;;;;;5032936;28;20025;-69
2023/03/09 01:45:20;;;;;;;4.00;1.55;;;;;;;;;;5032736;28;20035;-68
2023/03/09 01:47:46;;;;;;;2.35;1.50;;;;;;;;;;5033398;28;20096;-68
2023/03/09 01:50:14;;;;;;;1.88;1.55;;;;;;;;;;5032900;28;20021;-69
2023/03/09 01:52:44;;;;;;;2.63;1.50;;;;;;;;;;5033241;28;20540;-69
2023/03/09 01:55:11;;;;;;;2.78;1.45;;;;;;;;;;5033053;28;20026;-68
2023/03/09 01:57:48;;;;;;;3.08;1.90;;;;;;;;;;5032728;28;20033;-68
2023/03/09 02:00:15;;;;;;;1.73;1.60;;;;;;;;;;5031185;28;20421;-68
2023/03/09 02:02:47;;;;;;;2.33;1.70;;;;;;;;;;5032731;28;20389;-68
2023/03/09 02:05:15;;;;;;;2.22;1.70;;;;;;;;;;5033121;28;20025;-68
2023/03/09 02:07:44;;;;;;;2.85;1.75;;;;;;;;;;5031776;28;20040;-69
2023/03/09 02:10:17;;;;;;;2.78;2.10;;;;;;;;;;5032581;28;20379;-68
2023/03/09 02:12:52;;;;;;;4.57;1.90;;;;;;;;;;5031940;28;20025;-68
2023/03/09 02:15:19;;;;;;;4.13;1.95;;;;;;;;;;5032643;28;20021;-68
2023/03/09 02:17:45;;;;;;;3.38;1.88;;;;;;;;;;5032628;28;20547;-69
2023/03/09 02:20:30;;;;;;;5.55;2.40;;;;;;;;;;5032906;28;20030;-68
2023/03/09 02:22:57;;;;;;;7.00;2.28;;;;;;;;;;5033075;28;20032;-69
2023/03/09 02:25:43;;;;;;;2.28;1.80;;;;;;;;;;5032825;28;20022;-69
2023/03/09 02:28:10;;;;;;;5.00;2.13;;;;;;;;;;5032056;28;20040;-69
2023/03/09 02:30:39;;;;;;;4.75;1.92;;;;;;;;;;5032647;28;20024;-68
2023/03/09 02:33:06;;;;;;;4.32;2.20;;;;;;;;;;5032199;28;20051;-69
2023/03/09 02:35:33;;;;;;;3.90;2.15;;;;;;;;;;5033604;28;20030;-69
2023/03/09 02:37:59;;;;;;;4.95;2.08;;;;;;;;;;5032122;28;20481;-69
2023/03/09 02:40:30;;;;;;;3.80;2.35;;;;;;;;;;5032701;28;20032;-69
2023/03/09 02:42:57;;;;;;;7.95;2.40;;;;;;;;;;5034748;28;20052;-69
2023/03/09 02:45:23;;;;;;;4.55;2.20;;;;;;;;;;5036523;28;20022;-69
2023/03/09 02:47:50;;;;;;;5.90;2.10;;;;;;;;;;5036442;28;20059;-69
2023/03/09 02:50:17;;;;;;;7.40;2.60;;;;;;;;;;5036620;28;20025;-68
2023/03/09 02:52:43;;;;;;;4.15;2.30;;;;;;;;;;5036017;28;20397;-69
2023/03/09 02:55:10;;;;;;;3.70;2.20;;;;;;;;;;5036874;28;20488;-68
2023/03/09 02:57:36;;;;;;;3.63;2.08;;;;;;;;;;5035422;28;20055;-68
2023/03/09 03:00:06;;;;;;;7.40;2.40;;;;;;;;;;5036296;28;20032;-68
2023/03/09 03:02:32;;;;;;;7.00;2.38;;;;;;;;;;5068315;28;20025;-68
2023/03/09 03:04:59;;;;;;;3.60;2.30;;;;;;;;;;5035714;28;20017;-69
2023/03/09 03:07:25;;;;;;;5.07;2.47;;;;;;;;;;5036109;28;20032;-69
2023/03/09 03:09:51;;;;;;;5.80;2.20;;;;;;;;;;5036048;28;20359;-69
2023/03/09 03:12:18;;;;;;;4.75;2.10;;;;;;;;;;5035356;28;20029;-69
2023/03/09 03:14:45;;;;;;;5.60;2.15;;;;;;;;;;5036387;28;20025;-69
2023/03/09 03:17:11;;;;;;;5.38;2.67;;;;;;;;;;5035683;28;20027;-68
2023/03/09 03:19:37;;;;;;;6.75;2.58;;;;;;;;;;5035829;28;20033;-69
2023/03/09 03:22:04;;;;;;;9.07;3.00;;;;;;;;;;5035385;28;20022;-69
2023/03/09 03:24:30;;;;;;;4.90;2.55;;;;;;;;;;5035442;28;20048;-69
2023/03/09 03:26:57;;;;;;;6.65;2.53;;;;;;;;;;5034868;28;20026;-68
2023/03/09 03:29:23;;;;;;;13.00;2.40;;;;;;;;;;5035703;28;20030;-69
2023/03/09 03:31:50;;;;;;;3.65;1.80;;;;;;;;;;5035296;28;20483;-68
2023/03/09 03:34:16;;;;;;;13.75;3.33;;;;;;;;;;5034471;28;20067;-69
2023/03/09 03:36:43;;;;;;;10.02;3.13;;;;;;;;;;5034734;28;20028;-69
2023/03/09 03:39:09;;;;;;;9.45;2.30;;;;;;;;;;5035799;28;20408;-69
2023/03/09 03:41:35;;;;;;;9.95;2.38;;;;;;;;;;5034985;28;20017;-68
2023/03/09 03:44:02;;;;;;;4.13;2.00;;;;;;;;;;5034656;28;20403;-68
2023/03/09 03:46:28;;;;;;;6.90;2.30;;;;;;;;;;5035297;28;20025;-69
2023/03/09 03:48:54;;;;;;;7.10;2.15;;;;;;;;;;5034796;28;20475;-68
2023/03/09 03:51:21;;;;;;;7.50;2.10;;;;;;;;;;5034803;28;20021;-69
2023/03/09 03:53:47;;;;;;;9.05;2.30;;;;;;;;;;5065709;28;20037;-68
2023/03/09 03:56:14;;;;;;;5.75;2.10;;;;;;;;;;5034778;28;20026;-69
2023/03/09 03:58:41;;;;;;;10.40;2.30;;;;;;;;;;5035204;28;20394;-67
2023/03/09 04:01:07;;;;;;;5.97;1.90;;;;;;;;;;5034403;28;20017;-68
2023/03/09 04:03:34;;;;;;;7.95;2.35;;;;;;;;;;5034946;28;20033;-68
2023/03/09 04:06:02;;;;;;;10.15;2.70;;;;;;;;;;5034565;28;20032;-69
2023/03/09 04:08:29;;;;;;;9.88;2.40;;;;;;;;;;5034925;28;20029;-69
2023/03/09 04:10:55;;;;;;;7.78;2.78;;;;;;;;;;5034819;28;20068;-69
2023/03/09 04:13:21;;;;;;;11.23;3.25;;;;;;;;;;5034402;28;20032;-68
2023/03/09 04:15:48;;;;;;;14.63;4.03;;;;;;;;;;5034455;28;20025;-68
2023/03/09 04:18:14;;;;;;;8.50;3.10;;;;;;;;;;5034387;28;20036;-68
2023/03/09 04:20:42;;;;;;;14.18;3.60;;;;;;;;;;5034412;28;20067;-68
2023/03/09 04:23:09;;;;;;;8.85;3.30;;;;;;;;;;5034435;28;20094;-69
2023/03/09 04:25:35;;;;;;;12.25;3.65;;;;;;;;;;5034335;28;20483;-69
2023/03/09 04:28:02;;;;;;;13.48;3.58;;;;;;;;;;5034522;28;20021;-68
2023/03/09 04:30:28;;;;;;;12.15;3.30;;;;;;;;;;5034080;28;20025;-69
2023/03/09 04:32:55;;;;;;;12.73;4.10;;;;;;;;;;5034307;28;20039;-68
2023/03/09 04:35:21;;;;;;;14.05;3.95;;;;;;;;;;5034155;28;20026;-69
2023/03/09 04:37:47;;;;;;;12.00;3.92;;;;;;;;;;5033981;28;20033;-69
2023/03/09 04:40:14;;;;;;;10.13;3.33;;;;;;;;;;5033538;28;20022;-69
2023/03/09 04:42:40;;;;;;;10.80;3.15;;;;;;;;;;5033652;28;20029;-68
2023/03/09 04:45:07;;;;;;;13.98;3.38;;;;;;;;;;5033777;28;20029;-68
2023/03/09 04:47:33;;;;;;;9.13;3.50;;;;;;;;;;5033846;28;20045;-69
2023/03/09 04:50:00;;;;;;;10.48;3.83;;;;;;;;;;5034293;28;20022;-68
2023/03/09 04:52:26;;;;;;;11.13;4.25;;;;;;;;;;5033580;28;20036;-68
2023/03/09 04:54:54;;;;;;;12.88;4.18;;;;;;;;;;5033465;28;20022;-68
2023/03/09 04:57:21;;;;;;;15.60;4.43;;;;;;;;;;5033406;28;20485;-68
2023/03/09 04:59:47;;;;;;;11.70;4.38;;;;;;;;;;5034456;28;20034;-69
2023/03/09 05:02:14;;;;;;;9.43;3.72;;;;;;;;;;5034267;28;20021;-68
2023/03/09 05:04:40;;;;;;;11.65;4.00;;;;;;;;;;5033723;28;20033;-68
2023/03/09 05:07:06;;;;;;;8.65;3.70;;;;;;;;;;5033385;28;20022;-69
2023/03/09 05:09:33;;;;;;;12.50;4.20;;;;;;;;;;5033259;28;20029;-69
2023/03/09 05:11:59;;;;;;;10.10;3.92;;;;;;;;;;5033370;28;20429;-69
2023/03/09 05:14:25;;;;;;;17.95;4.10;;;;;;;;;;5033486;28;20029;-68
2023/03/09 05:16:52;;;;;;;13.45;4.20;;;;;;;;;;5033338;28;20079;-69
2023/03/09 05:19:19;;;;;;;10.05;3.63;;;;;;;;;;5033100;28;20030;-69
2023/03/09 05:21:45;;;;;;;10.95;3.50;;;;;;;;;;5032861;28;20018;-69
2023/03/09 05:24:12;;;;;;;10.45;4.35;;;;;;;;;;5033277;28;20094;-68
2023/03/09 05:26:38;;;;;;;9.77;3.30;;;;;;;;;;5033277;28;20018;-69
2023/03/09 05:29:04;;;;;;;10.90;3.50;;;;;;;;;;5033185;28;20027;-69
2023/03/09 05:31:31;;;;;;;14.40;4.35;;;;;;;;;;5033501;28;20017;-68
2023/03/09 05:33:57;;;;;;;10.45;3.72;;;;;;;;;;5032435;28;20063;-69
2023/03/09 05:36:24;;;;;;;13.73;3.90;;;;;;;;;;5033000;28;20025;-68
2023/03/09 05:38:51;;;;;;;13.00;5.00;;;;;;;;;;5032861;28;20039;-68
2023/03/09 05:41:18;;;;;;;15.15;6.30;;;;;;;;;;5032956;28;20017;-68
2023/03/09 05:43:44;;;;;;;13.98;6.80;;;;;;;;;;5032786;28;20049;-68
2023/03/09 05:46:12;;;;;;;14.52;5.53;;;;;;;;;;5033104;28;20040;-69
2023/03/09 05:48:39;;;;;;;15.95;4.57;;;;;;;;;;5032742;28;20030;-69
2023/03/09 05:51:05;;;;;;;14.52;5.60;;;;;;;;;;5032225;28;20072;-69
2023/03/09 05:53:32;;;;;;;10.93;4.25;;;;;;;;;;5032636;28;20029;-69
2023/03/09 05:55:59;;;;;;;10.85;4.30;;;;;;;;;;5032965;28;20033;-68
2023/03/09 05:58:25;;;;;;;11.55;3.80;;;;;;;;;;5032751;28;20041;-69
2023/03/09 06:00:52;;;;;;;12.25;4.95;;;;;;;;;;5032842;28;20024;-69
2023/03/09 06:03:19;;;;;;;16.00;4.78;;;;;;;;;;5032840;28;20082;-69
2023/03/09 06:05:45;;;;;;;11.95;4.30;;;;;;;;;;5032186;28;20033;-69
2023/03/09 06:08:12;;;;;;;14.45;4.18;;;;;;;;;;5032693;28;20029;-68
2023/03/09 06:10:38;;;;;;;11.15;4.30;;;;;;;;;;5033451;28;20021;-68
2023/03/09 06:13:04;;;;;;;15.75;4.80;;;;;;;;;;5032798;28;20385;-68
2023/03/09 06:15:32;;;;;;;10.13;5.07;;;;;;;;;;5031811;28;20025;-69
2023/03/09 06:17:58;;;;;;;12.65;5.35;;;;;;;;;;5032052;28;20041;-68
2023/03/09 06:20:24;;;;;;;14.32;4.32;;;;;;;;;;5032971;28;20025;-69
2023/03/09 06:22:51;;;;;;;13.05;4.18;;;;;;;;;;5032799;28;20025;-68
2023/03/09 06:25:17;;;;;;;8.40;4.25;;;;;;;;;;5031929;28;20086;-68
2023/03/09 06:27:43;;;;;;;12.02;5.72;;;;;;;;;;5031951;28;20386;-69
2023/03/09 06:30:10;;;;;;;13.80;4.97;;;;;;;;;;5032189;28;20018;-68
2023/03/09 06:32:36;;;;;;;13.48;4.85;;;;;;;;;;5032353;28;20028;-69
2023/03/09 06:35:03;;;;;;;20.05;5.75;;;;;;;;;;5032005;28;20026;-69
2023/03/09 06:37:29;;;;;;;24.40;11.93;;;;;;;;;;5031662;28;20028;-69
2023/03/09 06:39:55;;;;;;;27.25;10.60;;;;;;;;;;5031962;28;20032;-68
2023/03/09 06:42:22;;;;;;;14.73;5.60;;;;;;;;;;5032423;28;20033;-68
2023/03/09 06:44:50;;;;;;;16.85;6.05;;;;;;;;;;5031991;28;20411;-68
2023/03/09 06:47:16;;;;;;;12.00;4.78;;;;;;;;;;5032471;28;20481;-68
2023/03/09 06:49:43;;;;;;;14.63;5.55;;;;;;;;;;5031768;28;20022;-69
2023/03/09 06:52:10;;;;;;;13.75;5.15;;;;;;;;;;5031820;28;20025;-68
2023/03/09 06:54:36;;;;;;;15.25;5.78;;;;;;;;;;5032124;28;20033;-68
2023/03/09 06:57:03;;;;;;;17.15;7.15;;;;;;;;;;5031639;28;20040;-68
2023/03/09 06:59:29;;;;;;;20.70;8.50;;;;;;;;;;5031740;28;20025;-68
2023/03/09 07:01:56;;;;;;;19.15;9.70;;;;;;;;;;5031972;28;20022;-68
2023/03/09 07:04:22;;;;;;;13.77;8.05;;;;;;;;;;5031217;28;20025;-69
2023/03/09 07:06:48;;;;;;;12.18;5.57;;;;;;;;;;5031413;28;20029;-69
2023/03/09 07:09:15;;;;;;;10.07;4.00;;;;;;;;;;5031851;28;20032;-68
2023/03/09 07:11:41;;;;;;;8.20;3.60;;;;;;;;;;5031184;28;20038;-69
2023/03/09 07:14:07;;;;;;;13.20;3.90;;;;;;;;;;5030988;28;20017;-69
2023/03/09 07:16:34;;;;;;;8.77;3.58;;;;;;;;;;5031850;28;20017;-68
2023/03/09 07:19:00;;;;;;;11.43;3.70;;;;;;;;;;5031244;28;20426;-69
2023/03/09 07:21:26;;;;;;;16.02;4.55;;;;;;;;;;5028537;28;20031;-68
2023/03/09 07:23:52;;;;;;;12.30;4.47;;;;;;;;;;5029736;28;20044;-69
2023/03/09 07:26:20;;;;;;;11.50;5.03;;;;;;;;;;5030921;28;20075;-69
2023/03/09 07:28:47;;;;;;;12.27;4.90;;;;;;;;;;5033361;28;20022;-69
2023/03/09 07:31:14;;;;;;;11.77;5.05;;;;;;;;;;5032595;28;20029;-69
2023/03/09 07:33:40;;;;;;;12.82;5.72;;;;;;;;;;5033708;28;20497;-69
2023/03/09 07:36:07;;;;;;;12.77;5.43;;;;;;;;;;5034887;28;20024;-69
2023/03/09 07:38:34;;;;;;;13.02;5.22;;;;;;;;;;5033677;28;20033;-69
2023/03/09 07:41:01;;;;;;;15.52;5.18;;;;;;;;;;5033286;28;20040;-69
2023/03/09 07:43:27;;;;;;;13.40;4.57;;;;;;;;;;5033835;28;20037;-68
2023/03/09 07:45:54;;;;;;;9.70;4.15;;;;;;;;;;5030296;28;20022;-69
2023/03/09 07:48:20;;;;;;;12.30;4.45;;;;;;;;;;5033917;28;20040;-69
2023/03/09 07:50:46;;;;;;;12.57;4.85;;;;;;;;;;5034130;28;20018;-68
2023/03/09 07:53:13;;;;;;;17.83;8.25;;;;;;;;;;5034156;28;20037;-69
2023/03/09 07:55:39;;;;;;;20.63;8.98;;;;;;;;;;5033629;28;20079;-69
2023/03/09 07:58:05;;;;;;;16.95;7.05;;;;;;;;;;5032223;28;20221;-69
2023/03/09 08:00:32;;;;;;;11.95;5.18;;;;;;;;;;5030493;28;20025;-69
2023/03/09 08:03:00;;;;;;;11.98;5.57;;;;;;;;;;5041995;28;20021;-69
2023/03/09 08:05:26;;;;;;;12.90;6.07;;;;;;;;;;5040553;28;20018;-68
2023/03/09 08:07:53;;;;;;;16.10;5.40;;;;;;;;;;5033648;28;20087;-68
2023/03/09 08:10:19;;;;;;;10.25;4.97;;;;;;;;;;5033596;28;20047;-68
2023/03/09 08:12:50;;;;;;;15.63;4.45;;;;;;;;;;5033587;28;20490;-69
2023/03/09 08:15:18;;;;;;;9.52;3.90;;;;;;;;;;5032744;28;20460;-68
2023/03/09 08:17:45;;;;;;;12.93;5.00;;;;;;;;;;5032630;28;20041;-68
2023/03/09 08:20:11;;;;;;;18.63;6.07;;;;;;;;;;5033453;28;20482;-68
2023/03/09 08:22:38;;;;;;;12.20;4.95;;;;;;;;;;5033234;28;20053;-71
2023/03/09 08:25:05;;;;;;;16.65;3.97;;;;;;;;;;5031646;28;20028;-72
2023/03/09 08:27:37;;;;;;;10.45;4.38;;;;;;;;;;5032298;28;20025;-71
2023/03/09 08:30:03;;;;;;;11.02;4.28;;;;;;;;;;5031614;28;20673;-69
2023/03/09 08:32:30;;;;;;;15.88;4.07;;;;;;;;;;5032350;28;20036;-69
2023/03/09 08:34:57;;;;;;;9.40;3.60;;;;;;;;;;5032065;28;20048;-71
2023/03/09 08:37:24;;;;;;;11.60;3.20;;;;;;;;;;5032070;28;20509;-71
2023/03/09 08:39:53;;;;;;;8.98;3.05;;;;;;;;;;5031716;28;20021;-70
2023/03/09 08:42:19;;;;;;;11.00;3.75;;;;;;;;;;5030436;28;20033;-69
2023/03/09 08:44:46;;;;;;;15.25;5.18;;;;;;;;;;5034330;28;20046;-70
2023/03/09 08:47:12;;;;;;;13.57;6.95;;;;;;;;;;5031918;28;20037;-70
2023/03/09 08:49:40;;;;;;;11.43;4.72;;;;;;;;;;5031599;28;20029;-69
2023/03/09 08:52:07;;;;;;;12.68;4.32;;;;;;;;;;5030877;28;20367;-69
2023/03/09 08:54:33;;;;;;;10.60;5.35;;;;;;;;;;5030439;28;20029;-69
2023/03/09 08:57:01;;;;;;;12.38;5.85;;;;;;;;;;5031052;28;20052;-69
2023/03/09 08:59:27;;;;;;;14.70;5.90;;;;;;;;;;5031245;28;20033;-69
2023/03/09 09:01:54;;;;;;;10.65;4.32;;;;;;;;;;5031906;28;20034;-69
2023/03/09 09:04:20;;;;;;;8.88;4.00;;;;;;;;;;5031545;28;20090;-69
2023/03/09 09:06:46;;;;;;;14.73;4.38;;;;;;;;;;5031406;28;20381;-69
2023/03/09 09:09:13;;;;;;;9.80;3.78;;;;;;;;;;5031675;28;20561;-69
2023/03/09 09:11:39;;;;;;;12.85;3.92;;;;;;;;;;5031703;28;20067;-69
2023/03/09 09:14:06;;;;;;;17.85;6.80;;;;;;;;;;5031549;28;20040;-69
2023/03/09 09:16:32;;;;;;;9.68;3.58;;;;;;;;;;5030801;28;20505;-69
2023/03/09 09:18:59;;;;;;;10.57;3.97;;;;;;;;;;5030807;28;20052;-70
2023/03/09 09:21:27;;;;;;;11.25;3.53;;;;;;;;;;5031221;28;20018;-69
2023/03/09 09:23:54;;;;;;;12.00;3.50;;;;;;;;;;5031044;28;20397;-69
2023/03/09 09:26:21;;;;;;;7.28;3.25;;;;;;;;;;5031062;28;20021;-69
2023/03/09 09:28:47;;;;;;;11.25;3.47;;;;;;;;;;5030870;28;20033;-69
2023/03/09 09:31:16;;;;;;;10.20;4.28;;;;;;;;;;5031250;28;20029;-69
2023/03/09 09:33:43;;;;;;;11.50;5.00;;;;;;;;;;5030797;28;20033;-69
2023/03/09 09:36:11;;;;;;;15.80;5.85;;;;;;;;;;5031036;28;20051;-69
2023/03/09 09:38:38;;;;;;;15.05;5.38;;;;;;;;;;5030919;28;20090;-69
2023/03/09 09:41:16;;;;;;;10.98;5.00;;;;;;;;;;5030793;28;20025;-69
2023/03/09 09:43:43;;;;;;;16.23;4.43;;;;;;;;;;5030281;28;20059;-69
2023/03/09 09:46:10;;;;;;;12.77;4.22;;;;;;;;;;5031081;28;20029;-69
2023/03/09 09:48:40;;;;;;;15.77;6.50;;;;;;;;;;5030619;28;20035;-69
2023/03/09 09:51:09;;;;;;;9.93;5.05;;;;;;;;;;5028890;28;20013;-69
2023/03/09 09:54:00;;;;;;;9.93;4.35;;;;;;;;;;5031036;28;20025;-69
2023/03/09 09:56:37;;;;;;;17.42;5.13;;;;;;;;;;5029667;28;20021;-69
2023/03/09 09:59:06;;;;;;;12.43;5.07;;;;;;;;;;5028138;28;20037;-69
2023/03/09 10:01:35;;;;;;;11.18;4.13;;;;;;;;;;5030420;28;20026;-69
2023/03/09 10:04:06;;;;;;;10.70;4.30;;;;;;;;;;5030515;28;20036;-69
2023/03/09 10:06:32;;;;;;;13.80;4.28;;;;;;;;;;5030019;28;20036;-69
2023/03/09 10:09:07;;;;;;;10.35;4.00;;;;;;;;;;5029939;28;20025;-68
2023/03/09 10:11:41;;;;;;;6.85;3.47;;;;;;;;;;5029696;28;20014;-69
2023/03/09 10:14:26;;;;;;;16.35;3.60;;;;;;;;;;5030105;28;20017;-69
2023/03/09 10:16:59;;;;;;;17.40;3.53;;;;;;;;;;5030293;28;20032;-68
2023/03/09 10:19:33;;;;;;;11.65;3.85;;;;;;;;;;5030292;28;20432;-69
2023/03/09 10:22:05;;;;;;;14.70;4.00;;;;;;;;;;5043225;28;20040;-69
2023/03/09 10:24:43;;;;;;;12.55;3.85;;;;;;;;;;5030268;28;20029;-69
2023/03/09 10:27:15;;;;;;;11.70;3.58;;;;;;;;;;5030381;28;20099;-69
2023/03/09 10:29:53;;;;;;;10.27;3.47;;;;;;;;;;5030751;28;20037;-69
2023/03/09 10:32:38;;;;;;;15.55;4.03;;;;;;;;;;5030214;28;20026;-68
2023/03/09 10:35:23;;;;;;;12.68;3.67;;;;;;;;;;5028129;28;20049;-68
2023/03/09 10:37:50;;;;;;;12.77;3.17;;;;;;;;;;5028407;28;20022;-69
2023/03/09 10:40:24;;;;;;;12.82;3.33;;;;;;;;;;5029817;28;20030;-70
2023/03/09 10:42:51;;;;;;;22.08;4.32;;;;;;;;;;5028636;28;20030;-71
2023/03/09 10:45:24;;;;;;;23.73;4.45;;;;;;;;;;5029855;28;20041;-71
2023/03/09 10:47:52;;;;;;;17.02;4.03;;;;;;;;;;5030350;28;20030;-71
2023/03/09 10:50:21;;;;;;;18.83;4.10;;;;;;;;;;5027738;28;20029;-69
2023/03/09 10:52:48;;;;;;;19.20;3.90;;;;;;;;;;5029576;28;20398;-69
2023/03/09 10:55:29;;;;;;;15.93;4.20;;;;;;;;;;5029446;28;20474;-68
2023/03/09 10:57:57;;;;;;;14.48;3.03;;;;;;;;;;5030033;28;20079;-69
2023/03/09 11:00:25;;;;;;;14.20;3.55;;;;;;;;;;5030519;28;20024;-69
2023/03/09 11:02:53;;;;;;;21.80;3.50;;;;;;;;;;5029817;28;20037;-70
2023/03/09 11:05:28;;;;;;;9.77;2.80;;;;;;;;;;5032502;28;20375;-70
2023/03/09 11:07:55;;;;;;;15.98;4.22;;;;;;;;;;5033046;28;20367;-70
2023/03/09 11:10:29;;;;;;;18.20;3.13;;;;;;;;;;5033233;28;20413;-69
2023/03/09 11:12:56;;;;;;;16.08;3.90;;;;;;;;;;5031497;28;20031;-69
2023/03/09 11:15:32;;;;;;;13.30;3.85;;;;;;;;;;5033474;28;20036;-69
2023/03/09 11:17:59;;;;;;;19.67;3.50;;;;;;;;;;5033674;28;20033;-71
2023/03/09 11:20:26;;;;;;;17.38;3.38;;;;;;;;;;5034239;28;20079;-70
2023/03/09 11:23:01;;;;;;;19.90;3.67;;;;;;;;;;5033441;28;20029;-69
2023/03/09 11:25:37;;;;;;;10.82;2.70;;;;;;;;;;5033223;28;20505;-70
2023/03/09 11:28:11;;;;;;;10.45;2.97;;;;;;;;;;5032397;28;20043;-70
2023/03/09 11:30:39;;;;;;;19.30;3.00;;;;;;;;;;5030695;28;20036;-70
2023/03/09 11:33:09;;;;;;;11.68;2.90;;;;;;;;;;5032681;28;20027;-70
2023/03/09 11:35:36;;;;;;;10.65;2.35;;;;;;;;;;5033174;28;20017;-69
2023/03/09 11:38:10;;;;;;;10.40;2.78;;;;;;;;;;5033224;28;20037;-71
2023/03/09 11:40:39;;;;;;;11.57;2.92;;;;;;;;;;5033813;28;20022;-69
2023/03/09 11:43:08;;;;;;;11.05;2.38;;;;;;;;;;5033368;28;20410;-68
2023/03/09 11:45:37;;;;;;;8.50;2.90;;;;;;;;;;5033757;28;20033;-68
2023/03/09 11:48:05;;;;;;;11.02;2.53;;;;;;;;;;5033483;28;20411;-68
2023/03/09 11:50:35;;;;;;;10.13;2.58;;;;;;;;;;5033256;28;20086;-69
2023/03/09 11:53:03;;;;;;;9.38;2.90;;;;;;;;;;5033538;28;20020;-68
2023/03/09 11:55:36;;;;;;;7.88;2.95;;;;;;;;;;5033579;28;20033;-68
2023/03/09 11:58:04;;;;;;;8.50;2.60;;;;;;;;;;5032190;28;20024;-68
2023/03/09 12:00:32;;;;;;;9.18;2.67;;;;;;;;;;5033300;28;20032;-68
2023/03/09 12:03:02;;;;;;;10.10;2.97;;;;;;;;;;5033352;28;20036;-68
2023/03/09 12:05:37;;;;;;;9.32;2.85;;;;;;;;;;5032834;28;20025;-69
2023/03/09 12:08:06;;;;;;;8.88;2.80;;;;;;;;;;5032251;28;20506;-67
2023/03/09 12:10:35;;;;;;;8.93;2.40;;;;;;;;;;5033390;28;20017;-68
2023/03/09 12:13:02;;;;;;;7.50;2.60;;;;;;;;;;5032845;28;20025;-68
2023/03/09 12:15:47;;;;;;;8.70;2.60;;;;;;;;;;5032107;28;20033;-69
2023/03/09 12:18:21;;;;;;;9.98;2.70;;;;;;;;;;5032682;28;20033;-70
2023/03/09 12:20:52;;;;;;;6.72;3.13;;;;;;;;;;5032600;28;20021;-69
2023/03/09 12:23:40;;;;;;;8.45;3.00;;;;;;;;;;5032607;28;20052;-70
2023/03/09 12:26:13;;;;;;;10.10;2.90;;;;;;;;;;5032874;28;20036;-70
2023/03/09 12:28:40;;;;;;;9.07;2.95;;;;;;;;;;5032576;28;20516;-70
2023/03/09 12:31:24;;;;;;;10.68;3.60;;;;;;;;;;5033038;28;20033;-70
2023/03/09 12:33:56;;;;;;;10.20;2.65;;;;;;;;;;5032734;28;20021;-69
2023/03/09 12:36:22;;;;;;;9.73;3.17;;;;;;;;;;5030004;28;20441;-70
2023/03/09 12:39:07;;;;;;;11.75;2.47;;;;;;;;;;5031264;28;20032;-68
2023/03/09 12:41:53;;;;;;;11.27;3.47;;;;;;;;;;5031379;28;20025;-69
2023/03/09 12:44:38;;;;;;;9.02;3.17;;;;;;;;;;5029893;28;20053;-70
2023/03/09 12:47:04;;;;;;;8.13;2.65;;;;;;;;;;5029407;28;20033;-70
2023/03/09 12:49:33;;;;;;;7.78;2.90;;;;;;;;;;5031959;28;20051;-70
2023/03/09 12:52:05;;;;;;;8.23;2.78;;;;;;;;;;5030109;28;20026;-69
2023/03/09 12:54:32;;;;;;;10.25;3.00;;;;;;;;;;5031364;28;20034;-69
2023/03/09 12:57:08;;;;;;;13.85;3.00;;;;;;;;;;5030006;28;20506;-69
2023/03/09 12:59:35;;;;;;;11.98;3.33;;;;;;;;;;5030692;28;20019;-69
2023/03/09 13:02:18;;;;;;;11.15;3.30;;;;;;;;;;5030550;28;20037;-70
2023/03/09 13:05:04;;;;;;;11.65;3.13;;;;;;;;;;5029297;28;20028;-70
2023/03/09 13:07:31;;;;;;;10.77;3.20;;;;;;;;;;5028324;28;20029;-68
2023/03/09 13:09:57;;;;;;;9.20;3.05;;;;;;;;;;5030614;28;20025;-70
2023/03/09 13:12:30;;;;;;;10.88;2.58;;;;;;;;;;5042009;28;20035;-69
2023/03/09 13:14:56;;;;;;;7.40;2.65;;;;;;;;;;5051371;28;20481;-69
2023/03/09 13:17:23;;;;;;;10.95;2.55;;;;;;;;;;5040651;28;20025;-69
2023/03/09 13:19:52;;;;;;;10.18;2.95;;;;;;;;;;5035584;28;20024;-69
2023/03/09 13:22:20;;;;;;;11.27;3.28;;;;;;;;;;5051220;28;20033;-69
2023/03/09 13:24:47;;;;;;;11.80;3.05;;;;;;;;;;5038899;28;20021;-70
2023/03/09 13:27:17;;;;;;;9.50;2.83;;;;;;;;;;5028744;28;20033;-68
2023/03/09 13:29:57;;;;;;;11.38;2.88;;;;;;;;;;5031640;28;20044;-69
2023/03/09 13:32:26;;;;;;;12.63;2.78;;;;;;;;;;5044537;28;20029;-68
2023/03/09 13:34:54;;;;;;;10.85;2.97;;;;;;;;;;5050204;28;20027;-69
2023/03/09 13:37:22;;;;;;;7.75;2.83;;;;;;;;;;5035326;28;20029;-70
2023/03/09 13:40:02;;;;;;;9.00;2.85;;;;;;;;;;5041943;28;20028;-69
2023/03/09 13:42:30;;;;;;;8.55;2.33;;;;;;;;;;5042479;28;20080;-69
2023/03/09 13:44:56;;;;;;;9.65;2.58;;;;;;;;;;5030303;28;20055;-69
2023/03/09 13:47:24;;;;;;;6.43;2.58;;;;;;;;;;5030190;28;20498;-70
2023/03/09 13:49:51;;;;;;;8.10;2.50;;;;;;;;;;5030530;28;20043;-69
2023/03/09 13:52:19;;;;;;;11.73;3.00;;;;;;;;;;5030521;28;20405;-70
2023/03/09 13:54:53;;;;;;;7.82;2.38;;;;;;;;;;5031670;28;20029;-69
2023/03/09 13:57:23;;;;;;;9.82;2.50;;;;;;;;;;5050974;28;20150;-70
2023/03/09 13:59:55;;;;;;;8.25;2.38;;;;;;;;;;5050933;28;20388;-70
2023/03/09 14:02:23;;;;;;;8.93;2.38;;;;;;;;;;5050698;28;20490;-69
2023/03/09 14:04:58;;;;;;;8.73;3.50;;;;;;;;;;5037043;28;20025;-69
2023/03/09 14:07:30;;;;;;;6.50;2.40;;;;;;;;;;5027846;28;20023;-69
2023/03/09 14:09:58;;;;;;;7.47;2.58;;;;;;;;;;5027989;28;20109;-70
2023/03/09 14:12:26;;;;;;;6.57;2.42;;;;;;;;;;5029236;28;20030;-70
2023/03/09 14:14:53;;;;;;;9.63;3.00;;;;;;;;;;5030042;28;20026;-67
2023/03/09 14:17:20;;;;;;;9.20;2.72;;;;;;;;;;5031036;28;20044;-68
2023/03/09 14:19:51;;;;;;;6.72;2.47;;;;;;;;;;5029705;28;20389;-69
2023/03/09 14:22:18;;;;;;;6.63;2.33;;;;;;;;;;5031612;28;20385;-68
2023/03/09 14:24:45;;;;;;;9.55;2.97;;;;;;;;;;5030183;28;20037;-68
2023/03/09 14:27:24;;;;;;;7.25;2.60;;;;;;;;;;5046512;28;20056;-69
2023/03/09 14:29:51;;;;;;;8.30;2.50;;;;;;;;;;5030120;28;20033;-68
2023/03/09 14:32:27;;;;;;;5.68;2.15;;;;;;;;;;5029650;28;20401;-68
2023/03/09 14:34:54;;;;;;;6.88;2.42;;;;;;;;;;5030034;28;20036;-69
2023/03/09 14:37:26;;;;;;;11.40;2.60;;;;;;;;;;5030479;28;20226;-69
2023/03/09 14:39:52;;;;;;;7.30;2.58;;;;;;;;;;5033874;28;20025;-69
2023/03/09 14:42:26;;;;;;;6.38;2.30;;;;;;;;;;5034172;28;20033;-69
2023/03/09 14:44:59;;;;;;;8.52;2.50;;;;;;;;;;5034120;28;20053;-68